NCAR-RAP Real-Time Weather Data

Output produced by METARs form (12 May 2021  10:10 UTC)
found at http://weather.rap.ucar.edu/surface/
 
KFLO 120953Z 08004KT 2SM +RA BR BKN005 BKN011 OVC060 17/16 A3011 RMK AO2 CIG 003V008 SLP193 P0045 T01670156
KFLO 120943Z 00000KT 1 3/4SM +RA BR BKN007 OVC060 17/16 A3011 RMK AO2 P0036 T01670156
KFLO 120937Z 18003KT 4SM RA BR FEW007 SCT028 OVC060 17/16 A3011 RMK AO2 PRESRR P0028 T01720156
KFLO 120928Z 09004KT 7SM VCTS -RA FEW027 BKN050 OVC070 17/16 A3009 RMK AO2 P0025 T01670156
KFLO 120920Z 07007KT 3SM RA BR FEW027 BKN037 OVC065 17/15 A3007 RMK AO2 P0024 T01670150
KFLO 120905Z 23003KT 1 3/4SM +RA BR OVC035 17/16 A3008 RMK AO2 LTG DSNT W PRESRR P0011 T01720156
KFLO 120853Z 08005KT 9SM -RA BKN033 OVC042 17/16 A3006 RMK AO2 RAB0756 SLP176 P0006 60019 T01720156 55016
KFLO 120753Z 04003KT 10SM FEW029 OVC044 18/16 A3006 RMK AO2 RAE12 SLP176 P0001 T01780161
KFLO 120653Z 4SM +RA BR FEW021 BKN049 OVC060 18/17 A3008 RMK AO2 RAB21 SLP181 P0012 T01780167
KFLO 120553Z 11005KT 10SM OVC050 18/17 A3011 RMK AO2 SLP192 60001 T01830167 10228 20183 50001
KFLO 120509Z 13006KT 10SM SCT023 OVC055 19/17 A3011 RMK AO2 T01940167
KFLO 120453Z 09004KT 10SM BKN023 OVC055 19/17 A3012 RMK AO2 RAB20E52 SLP197 P0001 T01940167 402610172
KFLO 120353Z 13004KT 10SM SCT060 SCT070 OVC100 20/16 A3012 RMK AO2 SLP197 T02000161
KFLO 120328Z 11006KT 10SM FEW021 BKN110 20/16 A3011 RMK AO2 T02000161
KFLO 120319Z 13005KT 10SM FEW017 BKN023 BKN110 20/16 A3011 RMK AO2 T02000156
KFLO 120310Z 11004KT 10SM SCT017 SCT025 BKN065 20/16 A3011 RMK AO2 T02000156
KFLO 120300Z 12006KT 10SM SCT017 BKN025 OVC100 21/15 A3011 RMK AO2 T02060150
KFLO 120253Z 11006KT 10SM FEW014 BKN065 OVC100 21/14 A3011 RMK AO2 SLP192 T02060139 53017
KFLO 120153Z 10008KT 10SM OVC050 22/13 A3008 RMK AO2 SLP182 T02170133
KFLO 120053Z 08007KT 10SM SCT055 SCT065 OVC110 22/13 A3008 RMK AO2 SLP184 T02170133
KFLO 112353Z 04006KT 10SM FEW055 BKN070 OVC110 23/14 A3006 RMK AO2 SLP175 T02280139 10261 20228 53001
KFLO 112253Z 04006KT 10SM BKN050 24/14 A3005 RMK AO2 SLP172 T02390139
KFLO 112153Z 06004KT 10SM SCT120 24/14 A3004 RMK AO2 SLP170 T02440139
KFLO 112053Z 02004KT 10SM FEW037 BKN050 24/14 A3005 RMK AO2 SLP174 T02440139 58006
KFLO 111953Z 02004KT 10SM BKN037 BKN045 26/14 A3007 RMK AO2 SLP178 T02560144
KFLO 111853Z 01004KT 10SM FEW031 26/14 A3007 RMK AO2 SLP180 T02560144